Time;durP1;ratioP1;P1;durP2;ratioP2;P2;SDS_P1;SDS_P2;PMS_P1;PMS_P2;Temp;Humidity;BMP_temperature;BMP_pressure;BME280_temperature;BME280_humidity;BME280_pressure;Samples;Min_cycle;Max_cycle;Signal;HPM_P1;HPM_P2
2022/03/30 00:00:48;;;;;;;63.25;44.22;;;;;;;9.54;65.92;98622.13;5012202;28;20044;-66
2022/03/30 00:03:14;;;;;;;57.05;37.20;;;;;;;9.48;66.26;98622.53;5012304;28;20040;-62
2022/03/30 00:05:39;;;;;;;54.05;35.10;;;;;;;9.46;65.38;98619.97;5012642;28;20104;-62
2022/03/30 00:08:06;;;;;;;60.13;41.38;;;;;;;9.46;66.41;98614.72;5007669;28;20105;-63
2022/03/30 00:10:32;;;;;;;55.65;36.92;;;;;;;9.48;65.95;98608.53;5012078;28;20045;-64
2022/03/30 00:12:57;;;;;;;53.33;37.22;;;;;;;9.48;65.72;98617.25;5011782;28;20453;-62
2022/03/30 00:15:24;;;;;;;55.33;37.05;;;;;;;9.45;66.44;98612.16;5012723;28;20038;-62
2022/03/30 00:17:49;;;;;;;62.92;39.00;;;;;;;9.48;66.17;98609.38;5012583;28;20061;-63
2022/03/30 00:20:14;;;;;;;61.35;40.15;;;;;;;9.38;65.19;98603.84;5012020;28;20540;-62
2022/03/30 00:22:40;;;;;;;54.45;37.00;;;;;;;9.35;66.99;98605.81;5012211;28;20125;-63
2022/03/30 00:25:07;;;;;;;54.72;36.70;;;;;;;9.35;67.34;98597.91;5013011;28;20117;-63
2022/03/30 00:27:33;;;;;;;57.30;37.83;;;;;;;9.34;65.75;98598.88;5013075;28;20432;-62
2022/03/30 00:29:59;;;;;;;64.28;38.92;;;;;;;9.29;65.34;98591.28;5013719;28;20117;-62
2022/03/30 00:32:24;;;;;;;60.65;38.70;;;;;;;9.25;65.25;98584.50;5014098;28;20106;-63
2022/03/30 00:34:49;;;;;;;61.83;39.85;;;;;;;9.22;65.29;98587.34;5014132;28;20026;-63
2022/03/30 00:37:15;;;;;;;56.42;38.15;;;;;;;9.23;66.47;98581.16;5012539;28;20045;-62
2022/03/30 00:39:40;;;;;;;54.92;36.42;;;;;;;9.26;66.43;98580.13;5011473;28;20041;-62
2022/03/30 00:42:17;;;;;;;54.80;36.22;;;;;;;9.30;66.59;98577.16;5010956;28;20040;-62
2022/03/30 00:44:43;;;;;;;58.88;37.28;;;;;;;9.28;66.35;98579.06;5011265;28;20034;-63
2022/03/30 00:47:15;;;;;;;64.18;41.67;;;;;;;9.26;66.44;98578.31;5009760;28;20581;-64
2022/03/30 00:49:41;;;;;;;68.80;44.63;;;;;;;9.20;66.03;98576.06;5011235;28;20129;-64
2022/03/30 00:52:07;;;;;;;63.03;42.80;;;;;;;9.19;66.99;98577.84;5010681;28;20037;-64
2022/03/30 00:54:33;;;;;;;65.25;42.70;;;;;;;9.15;66.41;98572.88;5009933;28;20037;-64
2022/03/30 00:57:00;;;;;;;60.53;40.88;;;;;;;9.14;66.51;98577.31;5011100;28;20478;-63
2022/03/30 00:59:25;;;;;;;58.97;39.25;;;;;;;9.17;67.15;98576.25;5011331;28;20038;-64
2022/03/30 01:01:51;;;;;;;64.18;41.67;;;;;;;9.15;67.01;98573.72;5000410;28;20033;-63
2022/03/30 01:04:16;;;;;;;64.60;40.05;;;;;;;9.11;67.25;98574.88;5011082;28;20041;-63
2022/03/30 01:06:41;;;;;;;54.35;36.88;;;;;;;9.12;67.09;98568.66;5011142;28;20488;-64
2022/03/30 01:09:07;;;;;;;62.75;41.10;;;;;;;9.04;67.12;98576.19;5011431;28;20037;-64
2022/03/30 01:11:32;;;;;;;60.95;40.20;;;;;;;8.99;68.51;98565.97;5010464;28;20037;-63
2022/03/30 01:13:58;;;;;;;62.58;40.90;;;;;;;8.99;68.39;98558.06;5010776;28;20425;-64
2022/03/30 01:16:23;;;;;;;68.00;41.08;;;;;;;8.99;69.33;98557.25;5011000;28;20038;-64
2022/03/30 01:18:49;;;;;;;55.50;40.75;;;;;;;9.00;69.03;98554.50;5010891;28;20034;-64
2022/03/30 01:21:16;;;;;;;63.10;40.95;;;;;;;9.02;68.90;98552.63;5010270;28;20042;-63
2022/03/30 01:23:42;;;;;;;66.60;41.95;;;;;;;8.98;67.44;98539.75;5010933;28;20062;-64
2022/03/30 01:26:07;;;;;;;70.43;44.10;;;;;;;8.93;67.98;98541.84;5010876;28;20107;-64
2022/03/30 01:28:33;;;;;;;63.55;40.85;;;;;;;8.88;67.49;98533.41;5010772;28;20501;-63
2022/03/30 01:33:47;;;;;;;67.28;42.13;;;;;;;8.81;68.24;98532.94;5012574;28;20037;-63
2022/03/30 01:36:12;;;;;;;68.90;38.75;;;;;;;8.82;68.08;98537.25;5016689;28;20033;-65
2022/03/30 01:38:38;;;;;;;61.75;41.63;;;;;;;8.80;68.39;98523.38;5010635;28;20485;-64
2022/03/30 01:41:03;;;;;;;60.97;37.45;;;;;;;8.79;68.72;98519.91;5009924;28;20034;-63
2022/03/30 01:43:28;;;;;;;65.13;41.33;;;;;;;8.80;68.70;98523.38;5010399;28;20405;-64
2022/03/30 01:45:55;;;;;;;60.10;38.70;;;;;;;8.79;68.57;98524.31;5010306;28;20113;-64
2022/03/30 01:48:21;;;;;;;55.00;33.53;;;;;;;8.78;69.35;98512.94;5010369;28;20036;-65
2022/03/30 01:50:46;;;;;;;64.95;39.67;;;;;;;8.73;69.43;98519.44;5010094;28;20432;-63
2022/03/30 01:53:11;;;;;;;63.50;39.72;;;;;;;8.68;68.61;98524.97;5010857;28;20080;-63
2022/03/30 01:55:37;;;;;;;62.50;37.53;;;;;;;8.65;69.18;98519.91;5011242;28;20030;-65
2022/03/30 01:58:02;;;;;;;61.45;40.10;;;;;;;8.64;69.06;98515.59;5011823;28;20046;-64
2022/03/30 02:00:28;;;;;;;55.03;37.05;;;;;;;8.65;69.33;98519.06;5010532;28;20042;-63
2022/03/30 02:02:53;;;;;;;65.80;41.53;;;;;;;8.59;70.36;98512.41;5011127;28;20042;-64
2022/03/30 02:05:19;;;;;;;54.80;37.15;;;;;;;8.60;69.70;98519.34;5011911;28;20504;-64
2022/03/30 02:07:45;;;;;;;59.03;37.28;;;;;;;8.56;68.75;98518.66;5011718;28;20042;-64
2022/03/30 02:10:10;;;;;;;54.42;38.45;;;;;;;8.54;69.30;98512.69;5010746;28;20084;-64
2022/03/30 02:12:37;;;;;;;59.50;39.72;;;;;;;8.49;70.20;98513.91;5010628;28;20056;-64
2022/03/30 02:15:03;;;;;;;61.00;37.58;;;;;;;8.49;70.77;98506.00;5009733;28;20080;-63
2022/03/30 02:17:29;;;;;;;69.00;39.28;;;;;;;8.52;70.05;98497.97;4993620;28;20038;-63
2022/03/30 02:19:55;;;;;;;56.90;38.20;;;;;;;8.41;70.85;98506.47;4990673;28;20046;-64
2022/03/30 02:22:22;;;;;;;55.00;35.47;;;;;;;8.39;70.29;98505.69;4989574;28;20140;-64
2022/03/30 02:24:48;;;;;;;53.70;34.45;;;;;;;8.40;70.85;98502.19;4990419;28;20443;-63
2022/03/30 02:27:13;;;;;;;59.00;36.72;;;;;;;8.35;69.66;98505.06;4990304;28;20110;-64
2022/03/30 02:29:38;;;;;;;56.50;36.55;;;;;;;8.34;70.07;98495.50;4988697;28;20048;-63
2022/03/30 02:32:04;;;;;;;47.13;32.78;;;;;;;8.28;69.83;98493.22;4989674;28;20044;-64
2022/03/30 02:34:30;;;;;;;60.13;36.05;;;;;;;8.28;70.31;98495.84;4990259;28;20045;-63
2022/03/30 02:36:55;;;;;;;58.53;36.28;;;;;;;8.25;70.97;98489.97;4989794;28;20030;-65
2022/03/30 02:39:20;;;;;;;58.75;35.55;;;;;;;8.27;71.36;98494.19;4988524;28;20228;-64
2022/03/30 02:41:46;;;;;;;54.75;35.63;;;;;;;8.29;70.23;98489.66;4989385;28;20041;-64
2022/03/30 02:44:12;;;;;;;54.22;34.70;;;;;;;8.27;69.80;98488.06;4989976;28;20074;-64
2022/03/30 02:46:39;;;;;;;63.92;34.88;;;;;;;8.26;70.16;98492.47;4989681;28;20031;-64
2022/03/30 02:49:04;;;;;;;47.95;32.33;;;;;;;8.22;69.53;98482.25;4990407;28;20054;-63
2022/03/30 02:51:30;;;;;;;53.28;35.83;;;;;;;8.20;69.37;98471.84;4988284;28;20058;-62
2022/03/30 02:53:55;;;;;;;52.28;33.97;;;;;;;8.15;69.19;98480.00;4990424;28;20041;-64
2022/03/30 02:56:21;;;;;;;59.10;36.35;;;;;;;8.11;69.93;98480.28;4988593;28;20121;-64
2022/03/30 02:58:46;;;;;;;52.63;34.67;;;;;;;8.06;69.74;98472.69;4989994;28;20394;-64
2022/03/30 03:01:12;;;;;;;52.10;34.80;;;;;;;8.08;71.27;98473.44;4989393;28;20441;-64
2022/03/30 03:03:37;;;;;;;62.53;34.35;;;;;;;8.06;71.25;98475.31;4989757;28;20031;-63
2022/03/30 03:06:03;;;;;;;62.80;35.83;;;;;;;8.08;71.06;98478.69;4990277;28;20039;-64
2022/03/30 03:08:28;;;;;;;57.00;33.60;;;;;;;8.11;71.96;98472.41;4990135;28;20035;-65
2022/03/30 03:10:54;;;;;;;51.55;34.30;;;;;;;8.10;71.08;98476.81;4989600;28;20416;-65
2022/03/30 03:13:19;;;;;;;59.97;35.47;;;;;;;8.08;70.24;98475.22;4989585;28;20042;-65
2022/03/30 03:15:46;;;;;;;55.80;34.47;;;;;;;8.06;70.42;98466.59;4989610;28;20174;-64
2022/03/30 03:18:13;;;;;;;47.72;33.92;;;;;;;8.06;70.48;98463.97;4988250;28;20037;-64
2022/03/30 03:20:44;;;;;;;48.58;31.73;;;;;;;8.07;69.92;98463.03;4989490;28;20030;-65
2022/03/30 03:23:10;;;;;;;45.78;32.35;;;;;;;8.03;69.12;98458.91;4989550;28;20117;-65
2022/03/30 03:25:37;;;;;;;48.88;33.83;;;;;;;7.98;68.40;98453.94;4990559;28;20038;-64
2022/03/30 03:28:03;;;;;;;48.88;30.70;;;;;;;7.97;69.54;98462.72;4993744;28;20065;-64
2022/03/30 03:30:29;;;;;;;60.63;37.70;;;;;;;7.89;69.43;98457.94;4992860;28;20112;-63
2022/03/30 03:32:56;;;;;;;59.17;36.78;;;;;;;7.84;69.72;98454.75;4992995;28;20046;-64
2022/03/30 03:35:21;;;;;;;50.60;34.95;;;;;;;7.88;70.68;98453.63;4993092;28;20125;-64
2022/03/30 03:37:47;;;;;;;65.80;34.53;;;;;;;7.89;70.52;98455.31;4992977;28;20189;-65
2022/03/30 03:40:13;;;;;;;50.92;29.50;;;;;;;7.93;69.75;98456.00;4992693;28;20109;-64
2022/03/30 03:42:38;;;;;;;50.03;31.77;;;;;;;7.96;69.76;98451.38;4992500;28;20049;-64
2022/03/30 03:45:05;;;;;;;51.42;31.73;;;;;;;7.98;69.42;98450.47;4993235;28;20041;-64
2022/03/30 03:47:31;;;;;;;44.45;29.30;;;;;;;7.99;70.14;98453.00;4993222;28;20038;-65
2022/03/30 03:49:57;;;;;;;45.42;32.63;;;;;;;7.99;69.62;98454.78;4996011;28;20038;-64
2022/03/30 03:52:22;;;;;;;49.13;31.48;;;;;;;7.98;69.54;98453.09;5012647;28;20046;-64
2022/03/30 03:54:47;;;;;;;52.58;34.55;;;;;;;8.00;70.06;98448.56;5012840;28;20026;-65
2022/03/30 03:57:12;;;;;;;54.95;29.45;;;;;;;7.99;70.99;98454.78;5011821;28;20781;-66
2022/03/30 03:59:38;;;;;;;48.30;32.13;;;;;;;8.00;70.21;98452.06;5010989;28;20038;-64
2022/03/30 04:02:05;;;;;;;59.30;35.30;;;;;;;7.96;70.06;98453.19;5011775;28;20049;-64
2022/03/30 04:04:31;;;;;;;53.13;31.88;;;;;;;7.92;69.57;98447.25;5010857;28;20117;-64
2022/03/30 04:06:56;;;;;;;57.30;35.10;;;;;;;7.89;70.41;98442.19;5011940;28;20120;-65
2022/03/30 04:09:22;;;;;;;45.30;27.88;;;;;;;7.89;69.21;98444.81;5012360;28;20042;-63
2022/03/30 04:11:47;;;;;;;55.47;33.90;;;;;;;7.91;70.86;98439.50;5011069;28;20034;-65
2022/03/30 04:14:15;;;;;;;47.58;32.83;;;;;;;7.89;69.90;98443.97;5009688;28;20044;-65
2022/03/30 04:16:41;;;;;;;53.35;34.15;;;;;;;7.79;69.39;98442.84;5011913;28;20037;-64
2022/03/30 04:19:07;;;;;;;49.53;33.10;;;;;;;7.76;70.44;98437.78;5011975;28;20080;-64
2022/03/30 04:21:32;;;;;;;57.38;32.67;;;;;;;7.70;70.13;98433.72;5011490;28;20431;-63
2022/03/30 04:23:57;;;;;;;51.45;31.83;;;;;;;7.68;69.78;98438.25;5011733;28;20038;-63
2022/03/30 04:26:23;;;;;;;56.78;34.13;;;;;;;7.58;70.21;98448.44;5011708;28;20046;-64
2022/03/30 04:28:48;;;;;;;56.92;32.63;;;;;;;7.59;70.39;98442.25;5011721;28;20037;-65
2022/03/30 04:31:14;;;;;;;47.50;32.83;;;;;;;7.63;70.32;98446.38;5010891;28;20033;-64
2022/03/30 04:33:39;;;;;;;57.90;32.95;;;;;;;7.65;69.67;98438.41;5010458;28;20041;-63
2022/03/30 04:36:05;;;;;;;53.92;33.10;;;;;;;7.60;69.82;98432.59;5011974;28;20487;-63
2022/03/30 04:38:32;;;;;;;44.78;29.20;;;;;;;7.66;70.00;98432.25;5010759;28;20141;-62
2022/03/30 04:40:57;;;;;;;52.17;31.98;;;;;;;7.71;70.33;98435.44;5012452;28;20045;-64
2022/03/30 04:43:23;;;;;;;50.45;29.73;;;;;;;7.69;68.96;98430.28;5011026;28;20030;-64
2022/03/30 04:45:48;;;;;;;53.95;31.92;;;;;;;7.66;69.60;98422.59;5011332;28;20041;-64
2022/03/30 04:48:14;;;;;;;52.55;30.08;;;;;;;7.66;69.34;98419.97;5016912;28;20026;-63
2022/03/30 04:50:39;;;;;;;54.67;31.55;;;;;;;7.62;68.05;98422.84;5011486;28;20973;-64
2022/03/30 04:53:04;;;;;;;46.65;31.77;;;;;;;7.58;68.76;98419.59;5011544;28;20071;-63
2022/03/30 04:55:31;;;;;;;44.65;30.75;;;;;;;7.57;68.86;98422.28;5009881;28;20091;-61
2022/03/30 04:57:56;;;;;;;54.10;31.45;;;;;;;7.57;69.29;98419.66;5011306;28;20112;-64
2022/03/30 05:00:21;;;;;;;57.47;32.97;;;;;;;7.53;68.62;98422.47;5010777;28;20502;-63
2022/03/30 05:02:47;;;;;;;48.65;31.80;;;;;;;7.51;69.52;98419.09;5011078;28;20037;-64
2022/03/30 05:05:12;;;;;;;54.25;32.10;;;;;;;7.55;69.26;98421.53;5011156;28;20049;-63
2022/03/30 05:07:39;;;;;;;54.55;30.05;;;;;;;7.54;68.62;98418.06;5011081;28;20597;-63
2022/03/30 05:10:06;;;;;;;58.85;33.05;;;;;;;7.48;69.13;98418.41;5011793;28;20029;-63
2022/03/30 05:12:32;;;;;;;46.70;29.15;;;;;;;7.47;68.03;98419.34;5010822;28;20490;-63
2022/03/30 05:14:57;;;;;;;43.65;29.40;;;;;;;7.46;69.10;98415.91;5010918;28;20083;-62
2022/03/30 05:17:23;;;;;;;45.72;31.10;;;;;;;7.47;69.10;98412.34;5011130;28;20108;-63
2022/03/30 05:19:49;;;;;;;52.05;30.45;;;;;;;7.51;68.76;98415.63;5011079;28;20128;-63
2022/03/30 05:22:14;;;;;;;54.30;31.83;;;;;;;7.49;69.33;98413.09;5010548;28;20033;-64
2022/03/30 05:24:40;;;;;;;56.50;32.90;;;;;;;7.44;69.30;98411.69;5010695;28;20366;-64
2022/03/30 05:27:05;;;;;;;51.03;29.35;;;;;;;7.43;68.85;98410.84;5010472;28;20034;-64
2022/03/30 05:29:31;;;;;;;53.90;31.48;;;;;;;7.34;68.86;98416.63;5011266;28;20038;-63
2022/03/30 05:31:56;;;;;;;57.60;32.35;;;;;;;7.29;68.73;98409.00;5009931;28;20038;-64
2022/03/30 05:34:22;;;;;;;51.22;30.02;;;;;;;7.28;68.56;98412.53;5010233;28;20061;-64
2022/03/30 05:36:48;;;;;;;60.15;30.67;;;;;;;7.26;68.54;98403.09;5010835;28;20029;-64
2022/03/30 05:39:13;;;;;;;49.72;31.48;;;;;;;7.25;68.55;98404.88;5010585;28;20036;-63
2022/03/30 05:41:39;;;;;;;50.70;32.55;;;;;;;7.23;69.44;98401.50;5007755;28;20040;-63
2022/03/30 05:44:04;;;;;;;48.42;31.25;;;;;;;7.23;69.16;98408.50;4993332;28;20560;-62
2022/03/30 05:46:30;;;;;;;51.75;30.30;;;;;;;7.25;68.74;98406.66;5010343;28;20034;-62
2022/03/30 05:48:55;;;;;;;48.72;32.65;;;;;;;7.26;69.09;98406.56;5010389;28;20042;-63
2022/03/30 05:51:21;;;;;;;50.53;30.30;;;;;;;7.23;68.62;98411.13;5009792;28;20069;-61
2022/03/30 05:53:47;;;;;;;54.03;31.38;;;;;;;7.17;68.90;98408.88;5009629;28;20041;-63
2022/03/30 05:56:13;;;;;;;46.88;30.10;;;;;;;7.15;69.05;98416.81;5009317;28;20038;-63
2022/03/30 05:58:38;;;;;;;46.55;30.15;;;;;;;7.12;69.15;98413.53;5009783;28;20433;-62
2022/03/30 06:01:04;;;;;;;50.88;29.77;;;;;;;7.15;69.00;98414.19;5010192;28;20040;-64
2022/03/30 06:03:29;;;;;;;56.72;35.35;;;;;;;7.20;69.67;98419.19;5010281;28;20046;-64
2022/03/30 06:05:55;;;;;;;52.35;32.78;;;;;;;7.21;69.61;98421.72;5008943;28;20227;-64
2022/03/30 06:08:20;;;;;;;52.15;31.45;;;;;;;7.21;69.76;98426.09;5010183;28;20483;-64
2022/03/30 06:10:45;;;;;;;54.25;34.30;;;;;;;7.26;70.21;98424.06;5006671;28;20132;-63
2022/03/30 06:13:11;;;;;;;57.05;32.80;;;;;;;7.21;69.92;98428.72;5009774;28;20030;-63
2022/03/30 06:15:38;;;;;;;52.85;29.95;;;;;;;7.25;69.03;98427.63;5008493;28;20030;-64
2022/03/30 06:18:10;;;;;;;53.25;30.45;;;;;;;7.33;69.14;98435.88;5010247;28;20637;-64
2022/03/30 06:20:36;;;;;;;51.75;30.38;;;;;;;7.35;69.12;98430.56;5009766;28;20044;-64
2022/03/30 06:23:02;;;;;;;55.13;32.03;;;;;;;7.38;68.55;98423.34;5009602;28;20030;-64
2022/03/30 06:25:27;;;;;;;62.13;32.70;;;;;;;7.42;69.21;98430.09;5008186;28;20041;-63
2022/03/30 06:27:53;;;;;;;46.53;30.40;;;;;;;7.43;68.21;98418.72;5009765;28;20034;-62
2022/03/30 06:30:19;;;;;;;55.33;27.73;;;;;;;7.42;68.36;98432.72;5008918;28;20409;-63
2022/03/30 06:32:49;;;;;;;53.55;29.77;;;;;;;7.36;68.14;98432.22;5009064;28;20437;-64
2022/03/30 06:35:16;;;;;;;49.85;32.53;;;;;;;7.38;69.26;98433.00;5008087;28;20096;-62
2022/03/30 06:37:41;;;;;;;48.72;28.60;;;;;;;7.43;68.82;98429.19;5009499;28;20034;-64
2022/03/30 06:40:08;;;;;;;49.70;30.55;;;;;;;7.51;68.31;98437.44;5009761;28;20038;-64
2022/03/30 06:42:34;;;;;;;53.50;29.52;;;;;;;7.53;67.07;98430.34;5008611;28;20076;-63
2022/03/30 06:44:59;;;;;;;51.58;29.88;;;;;;;7.54;67.89;98436.44;5013394;28;20030;-63
2022/03/30 06:47:25;;;;;;;47.97;29.10;;;;;;;7.59;68.44;98442.25;5017005;28;25489;-63
2022/03/30 06:49:50;;;;;;;46.53;27.33;;;;;;;7.63;68.51;98441.13;5014867;28;20470;-65
2022/03/30 06:52:16;;;;;;;51.63;29.75;;;;;;;7.69;67.05;98438.13;5007729;28;20038;-63
2022/03/30 06:54:41;;;;;;;52.88;27.95;;;;;;;7.76;66.72;98437.78;5009398;28;20113;-63
2022/03/30 06:57:07;;;;;;;48.22;30.45;;;;;;;7.78;67.24;98444.63;5009686;28;20034;-63
2022/03/30 06:59:32;;;;;;;53.92;29.80;;;;;;;7.77;66.88;98427.19;5010071;28;20177;-65
2022/03/30 07:01:58;;;;;;;57.47;32.95;;;;;;;7.80;66.54;98428.78;5011298;28;20034;-64
2022/03/30 07:04:24;;;;;;;53.17;31.63;;;;;;;7.72;66.37;98431.88;5013139;28;20379;-64
2022/03/30 07:12:17;;;;;;;56.22;31.23;;;;;;;7.67;67.33;98447.03;5012599;28;20049;-65
2022/03/30 07:14:46;;;;;;;52.20;30.17;;;;;;;7.73;66.16;98446.69;5011912;28;20038;-65
2022/03/30 07:17:11;;;;;;;52.33;28.67;;;;;;;7.83;66.84;98442.56;5013060;28;20085;-64
2022/03/30 07:19:38;;;;;;;57.17;32.72;;;;;;;7.86;66.65;98444.16;5015193;28;20132;-62
2022/03/30 07:22:03;;;;;;;46.22;29.70;;;;;;;7.99;66.71;98447.75;5016871;28;20030;-63
2022/03/30 07:24:29;;;;;;;46.97;29.95;;;;;;;8.11;66.50;98448.78;5013570;28;20033;-63
2022/03/30 07:26:54;;;;;;;41.42;29.52;;;;;;;8.21;66.47;98442.03;5013847;28;20404;-63
2022/03/30 07:29:19;;;;;;;51.85;31.40;;;;;;;8.13;64.97;98441.66;5013860;28;20528;-63
2022/03/30 07:31:45;;;;;;;69.18;33.20;;;;;;;8.16;66.40;98441.47;5013054;28;20408;-61
2022/03/30 07:34:10;;;;;;;46.20;29.20;;;;;;;8.29;65.75;98441.56;5013314;28;20061;-63
2022/03/30 07:36:37;;;;;;;47.42;29.33;;;;;;;8.43;65.18;98436.34;5012070;28;20064;-63
2022/03/30 07:39:03;;;;;;;49.42;29.55;;;;;;;8.50;64.24;98428.94;5014074;28;20034;-63
2022/03/30 07:41:28;;;;;;;50.13;29.48;;;;;;;8.59;63.96;98423.09;5012708;28;20083;-63
2022/03/30 07:43:53;;;;;;;62.05;32.63;;;;;;;8.78;64.68;98428.84;5012546;28;20038;-62
2022/03/30 07:46:19;;;;;;;49.60;31.83;;;;;;;9.03;62.38;98427.28;5012810;28;20030;-63
2022/03/30 07:48:44;;;;;;;45.28;28.08;;;;;;;9.35;61.90;98429.59;5012759;28;20033;-63
2022/03/30 07:51:10;;;;;;;42.92;29.30;;;;;;;9.38;62.22;98426.78;4992188;28;20186;-63
2022/03/30 07:53:35;;;;;;;58.55;31.38;;;;;;;9.43;61.36;98422.06;4993662;28;20042;-63
2022/03/30 07:56:00;;;;;;;47.70;29.77;;;;;;;9.44;60.77;98426.38;4992715;28;20670;-63
2022/03/30 07:58:26;;;;;;;50.50;29.60;;;;;;;9.26;61.60;98417.06;4993086;28;20054;-63
2022/03/30 08:00:52;;;;;;;55.40;29.73;;;;;;;9.30;61.84;98418.53;4992758;28;20031;-62
2022/03/30 08:03:17;;;;;;;45.03;29.27;;;;;;;9.44;62.29;98426.38;5006073;28;20577;-62
2022/03/30 08:05:43;;;;;;;46.53;29.95;;;;;;;9.46;60.82;98417.41;5012538;28;20034;-62
2022/03/30 08:08:09;;;;;;;46.03;31.27;;;;;;;9.52;60.39;98420.59;5012376;28;20409;-62
2022/03/30 08:10:35;;;;;;;53.50;30.77;;;;;;;9.41;60.62;98424.78;5012829;28;20409;-62
2022/03/30 08:13:02;;;;;;;47.63;31.52;;;;;;;9.38;60.69;98427.63;5011413;28;20042;-63
2022/03/30 08:15:28;;;;;;;56.05;31.20;;;;;;;9.54;60.30;98419.53;5013014;28;20030;-63
2022/03/30 08:17:54;;;;;;;49.65;32.13;;;;;;;9.55;60.03;98418.59;5013134;28;20050;-63
2022/03/30 08:23:04;;;;;;;51.70;29.75;;;;;;;9.43;60.05;98422.06;5012859;28;20129;-61
2022/03/30 08:25:29;;;;;;;46.80;27.80;;;;;;;9.56;59.83;98420.28;5012463;28;20095;-60
2022/03/30 08:27:55;;;;;;;49.10;28.38;;;;;;;9.69;59.64;98417.66;5012055;28;20026;-58
2022/03/30 08:30:20;;;;;;;48.17;27.33;;;;;;;9.96;58.86;98430.72;5012169;28;20109;-63
2022/03/30 08:32:45;;;;;;;54.25;27.92;;;;;;;9.96;58.66;98428.09;5012332;28;20535;-62
2022/03/30 08:35:12;;;;;;;41.92;26.02;;;;;;;10.10;57.98;98419.25;5012155;28;20049;-63
2022/03/30 08:37:39;;;;;;;44.47;25.77;;;;;;;10.25;58.23;98420.81;5011961;28;20508;-65
2022/03/30 08:40:06;;;;;;;43.30;27.67;;;;;;;10.32;57.07;98431.81;5012816;28;20041;-64
2022/03/30 08:42:32;;;;;;;45.95;25.98;;;;;;;10.39;57.00;98425.16;5011928;28;20110;-64
2022/03/30 08:44:59;;;;;;;42.35;26.05;;;;;;;10.57;56.10;98420.38;5010934;28;20168;-63
2022/03/30 08:47:24;;;;;;;44.63;28.23;;;;;;;10.66;55.89;98409.19;5012058;28;20113;-64
2022/03/30 08:49:51;;;;;;;45.65;26.77;;;;;;;10.94;54.78;98415.09;5011702;28;20165;-62
2022/03/30 08:52:17;;;;;;;42.65;24.70;;;;;;;11.09;53.42;98408.69;5010923;28;20168;-65
2022/03/30 08:54:49;;;;;;;40.63;26.23;;;;;;;11.41;53.16;98410.75;5011547;28;20409;-62
2022/03/30 08:57:15;;;;;;;47.97;25.38;;;;;;;11.50;52.92;98415.34;4994987;28;20559;-63
2022/03/30 09:00:09;;;;;;;41.72;26.88;;;;;;;11.75;51.20;98410.84;4989260;28;20065;-63
2022/03/30 09:02:41;;;;;;;38.10;23.73;;;;;;;12.18;51.10;98408.44;4985425;28;20553;-64
2022/03/30 09:05:20;;;;;;;39.13;23.77;;;;;;;12.99;49.37;98409.03;5001355;28;20602;-63
2022/03/30 09:07:48;;;;;;;35.05;22.25;;;;;;;13.21;47.89;98408.09;5005377;28;20053;-64
2022/03/30 09:10:16;;;;;;;42.58;25.92;;;;;;;13.26;46.64;98405.09;5005589;28;20059;-64
2022/03/30 09:12:43;;;;;;;35.30;23.98;;;;;;;13.42;45.76;98410.84;5004421;28;20120;-64
2022/03/30 09:15:09;;;;;;;36.40;23.20;;;;;;;14.17;45.29;98404.47;5006584;28;20045;-69
2022/03/30 09:17:42;;;;;;;31.48;21.63;;;;;;;14.16;44.21;98404.63;5003125;28;20064;-64
2022/03/30 09:20:14;;;;;;;33.13;20.45;;;;;;;13.93;43.62;98404.78;5004443;28;20042;-65
2022/03/30 09:22:44;;;;;;;34.78;21.58;;;;;;;13.81;44.02;98402.31;5006176;28;20758;-67
2022/03/30 09:25:11;;;;;;;34.15;21.25;;;;;;;14.29;44.48;98401.75;5006329;28;20033;-66
2022/03/30 09:27:41;;;;;;;37.10;21.55;;;;;;;14.54;44.38;98401.28;5005915;28;20088;-66
2022/03/30 09:30:08;;;;;;;35.28;21.50;;;;;;;15.09;41.83;98403.53;5004617;28;20088;-63
2022/03/30 09:32:33;;;;;;;36.75;20.75;;;;;;;15.01;40.55;98406.00;4998269;28;20446;-64
2022/03/30 09:34:59;;;;;;;40.78;21.33;;;;;;;14.62;40.72;98405.94;4991328;28;20042;-69
2022/03/30 09:37:24;;;;;;;39.15;21.27;;;;;;;14.96;40.76;98398.50;4986657;28;20136;-64
2022/03/30 09:39:50;;;;;;;35.67;18.45;;;;;;;15.80;39.79;98392.63;5002325;28;20584;-66
2022/03/30 09:42:17;;;;;;;40.33;21.70;;;;;;;15.99;38.33;98396.22;5004934;28;20501;-65
2022/03/30 09:44:50;;;;;;;39.83;21.00;;;;;;;16.55;37.25;98397.97;4996986;28;20956;-65
2022/03/30 09:47:17;;;;;;;29.65;20.00;;;;;;;16.44;37.10;98391.03;4988715;28;20076;-66
2022/03/30 09:49:47;;;;;;;36.50;22.63;;;;;;;16.55;36.17;98389.16;4986709;28;20054;-64
2022/03/30 09:52:27;;;;;;;28.08;19.38;;;;;;;16.77;35.21;98395.91;5003212;28;20040;-67
2022/03/30 09:54:53;;;;;;;30.10;20.75;;;;;;;16.84;34.28;98392.50;5007976;28;20454;-66
2022/03/30 09:57:27;;;;;;;34.17;21.90;;;;;;;16.53;34.97;98398.09;5004628;28;20048;-64
2022/03/30 10:00:16;;;;;;;28.25;19.00;;;;;;;15.81;35.40;98398.78;5006243;28;20493;-64
2022/03/30 10:02:43;;;;;;;33.53;20.88;;;;;;;15.46;37.00;98406.34;5003468;28;20052;-67
2022/03/30 10:05:12;;;;;;;32.03;19.23;;;;;;;14.99;37.80;98405.34;4995416;28;20054;-66
2022/03/30 10:07:38;;;;;;;32.00;20.60;;;;;;;14.68;38.50;98407.22;4993618;28;20046;-64
2022/03/30 10:10:11;;;;;;;30.05;17.65;;;;;;;14.26;39.55;98408.16;5005954;28;20052;-67
2022/03/30 10:12:37;;;;;;;36.38;18.00;;;;;;;14.26;38.27;98404.66;4998292;28;20034;-66
2022/03/30 10:15:03;;;;;;;25.88;17.95;;;;;;;13.84;38.33;98394.97;5005186;28;20589;-66
2022/03/30 10:17:29;;;;;;;35.85;17.98;;;;;;;13.87;39.01;98397.34;5008326;28;20038;-67
2022/03/30 10:19:58;;;;;;;27.73;17.95;;;;;;;13.69;38.03;98391.81;5001419;28;20034;-65
2022/03/30 10:22:57;;;;;;;27.45;17.80;;;;;;;13.84;37.99;98384.38;5007552;28;20038;-65
2022/03/30 10:25:39;;;;;;;24.83;16.80;;;;;;;13.70;36.81;98371.44;5001055;28;20124;-66
2022/03/30 10:28:23;;;;;;;24.30;17.75;;;;;;;13.84;37.55;98368.47;5001944;28;20110;-66
2022/03/30 10:30:54;;;;;;;33.70;20.65;;;;;;;13.89;37.86;98373.38;5001695;28;20030;-65
2022/03/30 10:33:34;;;;;;;27.13;18.63;;;;;;;14.50;36.27;98367.22;5003364;28;20460;-64
2022/03/30 10:36:22;;;;;;;27.33;16.45;;;;;;;14.68;36.65;98373.56;4998608;28;20121;-64
2022/03/30 10:39:24;;;;;;;33.10;18.33;;;;;;;14.72;36.52;98359.06;5001401;28;20044;-64
2022/03/30 10:42:03;;;;;;;32.47;18.70;;;;;;;14.08;37.40;98352.28;5001239;28;20045;-65
2022/03/30 10:44:58;;;;;;;31.77;15.70;;;;;;;15.13;34.97;98348.34;5002086;28;20493;-64
2022/03/30 10:47:27;;;;;;;22.58;15.90;;;;;;;15.27;34.74;98345.25;4999994;28;20132;-66
2022/03/30 10:49:55;;;;;;;24.65;15.55;;;;;;;15.14;34.53;98350.03;5002083;28;20038;-66
2022/03/30 10:52:24;;;;;;;25.90;14.57;;;;;;;15.13;33.83;98345.69;5001817;28;20038;-65
2022/03/30 10:54:55;;;;;;;24.13;16.35;;;;;;;14.79;35.73;98356.69;5003667;28;20082;-63
2022/03/30 10:57:43;;;;;;;33.03;17.08;;;;;;;14.85;35.15;98347.34;5000124;28;20045;-63
2022/03/30 11:00:17;;;;;;;22.90;16.10;;;;;;;14.28;36.15;98352.34;5000484;28;20053;-65
2022/03/30 11:02:42;;;;;;;24.25;16.55;;;;;;;13.98;37.46;98339.94;4999977;28;20034;-66
2022/03/30 11:05:13;;;;;;;26.58;18.33;;;;;;;13.93;38.18;98343.84;5002249;28;20045;-66
2022/03/30 11:07:39;;;;;;;25.13;17.40;;;;;;;14.00;38.40;98341.47;4999657;28;20525;-65
2022/03/30 11:10:21;;;;;;;19.30;14.85;;;;;;;14.07;37.98;98339.97;4999629;28;20045;-64
2022/03/30 11:13:11;;;;;;;27.25;17.48;;;;;;;14.04;38.58;98328.81;5001424;28;20037;-66
2022/03/30 11:16:04;;;;;;;23.33;16.95;;;;;;;13.66;39.98;98325.00;4998023;28;20030;-63
2022/03/30 11:18:30;;;;;;;28.05;15.07;;;;;;;13.66;40.24;98317.06;5001854;28;20050;-64
2022/03/30 11:21:15;;;;;;;32.00;18.25;;;;;;;13.67;39.89;98313.44;4998427;28;20121;-65
2022/03/30 11:23:57;;;;;;;28.38;16.10;;;;;;;13.75;39.92;98311.81;4999447;28;20042;-63
2022/03/30 11:26:24;;;;;;;21.88;14.85;;;;;;;13.75;39.45;98305.69;5000421;28;20107;-64
2022/03/30 11:28:49;;;;;;;24.52;16.00;;;;;;;14.00;40.03;98308.84;5002991;28;20042;-64
2022/03/30 11:31:23;;;;;;;27.40;16.33;;;;;;;13.71;39.86;98304.28;4999740;28;20192;-67
2022/03/30 11:34:31;;;;;;;32.10;16.98;;;;;;;13.65;40.49;98299.50;5002462;28;20053;-63
2022/03/30 11:36:58;;;;;;;23.80;15.63;;;;;;;13.79;40.01;98296.50;4985731;28;20401;-64